createdAt,value
2019-05-05T00:00:40.281Z,6.75
2019-05-05T00:03:14.736Z,9.40
2019-05-05T00:05:44.471Z,8.13
2019-05-05T00:08:12.757Z,7.50
2019-05-05T00:10:58.684Z,6.12
2019-05-05T00:13:28.524Z,7.75
2019-05-05T00:15:58.389Z,6.15
2019-05-05T00:18:28.054Z,8.85
2019-05-05T00:20:56.244Z,7.65
2019-05-05T00:23:25.072Z,7.50
2019-05-05T00:25:55.271Z,9.03
2019-05-05T00:28:24.882Z,11.60
2019-05-05T00:30:55.249Z,9.50
2019-05-05T00:33:24.879Z,10.90
2019-05-05T00:35:54.533Z,8.78
2019-05-05T00:38:24.741Z,9.85
2019-05-05T00:40:54.823Z,9.03
2019-05-05T00:43:22.643Z,10.63
2019-05-05T00:45:52.476Z,9.40
2019-05-05T00:48:40.400Z,11.28
2019-05-05T00:51:08.593Z,9.70
2019-05-05T00:53:36.807Z,11.80
2019-05-05T00:56:05.249Z,11.85
2019-05-05T00:58:35.342Z,11.48
2019-05-05T01:01:14.468Z,8.48
2019-05-05T01:03:44.173Z,9.25
2019-05-05T01:06:17.072Z,8.48
2019-05-05T01:08:45.276Z,9.40
2019-05-05T01:11:14.935Z,9.55
2019-05-05T01:13:45.348Z,10.65
2019-05-05T01:16:15.126Z,10.80
2019-05-05T01:18:44.908Z,11.40
2019-05-05T01:21:14.902Z,8.68
2019-05-05T01:23:42.875Z,10.63
2019-05-05T01:26:11.052Z,9.98
2019-05-05T01:28:39.290Z,9.98
2019-05-05T01:31:09.121Z,12.00
2019-05-05T01:33:38.960Z,10.40
2019-05-05T01:36:07.198Z,8.88
2019-05-05T01:38:39.720Z,10.45
2019-05-05T01:41:09.594Z,13.28
2019-05-05T01:43:37.826Z,10.63
2019-05-05T01:46:06.020Z,12.07
2019-05-05T01:48:35.065Z,11.05
2019-05-05T01:51:05.040Z,12.40
2019-05-05T01:53:35.003Z,10.35
2019-05-05T01:56:04.862Z,10.13
2019-05-05T01:58:34.902Z,12.55
2019-05-05T02:01:05.012Z,11.57
2019-05-05T02:03:35.018Z,9.78
2019-05-05T02:06:05.094Z,8.23
2019-05-05T02:08:34.971Z,12.58
2019-05-05T02:11:05.173Z,8.50
2019-05-05T02:13:34.679Z,10.80
2019-05-05T02:16:04.599Z,10.70
2019-05-05T02:18:34.606Z,9.13
2019-05-05T02:21:06.918Z,11.30
2019-05-05T02:23:35.409Z,10.85
2019-05-05T02:26:04.683Z,8.73
2019-05-05T02:28:36.931Z,10.65
2019-05-05T02:31:16.725Z,10.75
2019-05-05T02:33:45.995Z,10.55
2019-05-05T02:36:15.932Z,8.63
2019-05-05T02:38:46.238Z,9.65
2019-05-05T02:41:15.433Z,9.35
2019-05-05T02:43:44.955Z,10.88
2019-05-05T02:46:30.962Z,10.80
2019-05-05T02:48:59.161Z,12.18
2019-05-05T02:51:27.377Z,11.68
2019-05-05T02:53:55.749Z,11.53
2019-05-05T02:56:26.420Z,13.05
2019-05-05T02:58:56.429Z,12.07
2019-05-05T03:01:44.668Z,10.08
2019-05-05T03:04:14.095Z,14.18
2019-05-05T03:06:45.333Z,11.88
2019-05-05T03:09:13.860Z,12.40
2019-05-05T03:11:43.669Z,14.40
2019-05-05T03:14:11.942Z,14.18
2019-05-05T03:16:40.140Z,14.30
2019-05-05T03:19:08.904Z,13.78
2019-05-05T03:21:37.176Z,13.05
2019-05-05T03:24:05.440Z,14.40
2019-05-05T03:26:34.053Z,13.30
2019-05-05T03:29:04.799Z,9.98
2019-05-05T03:31:35.175Z,13.58
2019-05-05T03:34:05.988Z,11.63
2019-05-05T03:36:33.939Z,12.37
2019-05-05T03:39:02.505Z,10.60
2019-05-05T03:41:34.342Z,12.90
2019-05-05T03:44:06.623Z,11.90
2019-05-05T03:46:35.392Z,12.88
2019-05-05T03:49:04.803Z,9.85
2019-05-05T03:51:34.508Z,10.23
2019-05-05T03:54:04.375Z,12.13
2019-05-05T03:56:34.636Z,14.30
2019-05-05T03:59:04.699Z,11.63
2019-05-05T04:01:44.015Z,11.22
2019-05-05T04:04:29.953Z,8.40
2019-05-05T04:06:58.616Z,9.50
2019-05-05T04:09:26.808Z,13.60
2019-05-05T04:11:55.110Z,9.80
2019-05-05T04:14:25.040Z,10.78
2019-05-05T04:16:54.859Z,9.40
2019-05-05T04:19:30.438Z,12.78
2019-05-05T04:21:58.691Z,11.70
2019-05-05T04:24:26.915Z,10.03
2019-05-05T04:26:55.104Z,12.40
2019-05-05T04:29:24.417Z,12.68
2019-05-05T04:31:54.038Z,12.03
2019-05-05T04:34:24.084Z,12.78
2019-05-05T04:36:54.495Z,11.95
2019-05-05T04:39:23.662Z,9.78
2019-05-05T04:41:51.962Z,9.93
2019-05-05T04:44:20.164Z,12.23
2019-05-05T04:46:50.000Z,12.78
2019-05-05T04:49:36.242Z,13.93
2019-05-05T04:52:18.215Z,14.95
2019-05-05T04:54:48.048Z,15.05
2019-05-05T04:57:16.244Z,15.03
2019-05-05T04:59:44.654Z,14.33
2019-05-05T05:02:30.487Z,13.50
2019-05-05T05:05:06.308Z,14.58
2019-05-05T05:07:34.581Z,15.75
2019-05-05T05:10:04.531Z,14.95
2019-05-05T05:12:34.190Z,15.03
2019-05-05T05:15:04.325Z,13.60
2019-05-05T05:17:44.332Z,16.85
2019-05-05T05:20:14.145Z,15.75
2019-05-05T05:22:44.002Z,17.15
2019-05-05T05:25:13.619Z,14.35
2019-05-05T05:27:44.156Z,14.60
2019-05-05T05:30:13.713Z,14.53
2019-05-05T05:32:41.873Z,14.28
2019-05-05T05:35:10.071Z,17.02
2019-05-05T05:37:38.264Z,15.10
2019-05-05T05:40:16.905Z,15.35
2019-05-05T05:42:45.128Z,16.75
2019-05-05T05:45:18.029Z,15.58
2019-05-05T05:48:04.172Z,16.37
2019-05-05T05:50:34.070Z,15.35
2019-05-05T05:53:04.479Z,15.55
2019-05-05T05:55:34.164Z,11.80
2019-05-05T05:58:02.138Z,15.32
2019-05-05T06:00:30.708Z,15.30
2019-05-05T06:02:58.939Z,15.48
2019-05-05T06:05:27.135Z,13.53
2019-05-05T06:07:55.336Z,16.17
2019-05-05T06:10:26.632Z,13.85
2019-05-05T06:12:54.679Z,16.40
2019-05-05T06:15:24.434Z,17.23
2019-05-05T06:17:53.973Z,14.70
2019-05-05T06:20:23.837Z,14.35
2019-05-05T06:22:53.539Z,15.68
2019-05-05T06:25:21.903Z,15.08
2019-05-05T06:27:50.092Z,13.90
2019-05-05T06:30:18.292Z,14.07
2019-05-05T06:32:46.526Z,12.20
2019-05-05T06:35:14.720Z,16.32
2019-05-05T06:37:54.764Z,15.88
2019-05-05T06:40:25.329Z,15.40
2019-05-05T06:42:58.095Z,16.15
2019-05-05T06:45:31.009Z,13.72
2019-05-05T06:47:59.204Z,13.03
2019-05-05T06:50:27.401Z,15.50
2019-05-05T06:52:55.634Z,17.42
2019-05-05T06:55:24.537Z,15.60
2019-05-05T06:57:53.930Z,15.78
2019-05-05T07:00:24.074Z,18.32
2019-05-05T07:02:54.050Z,16.12
2019-05-05T07:05:23.519Z,15.63
2019-05-05T07:07:53.651Z,14.47
2019-05-05T07:10:21.761Z,15.35
2019-05-05T07:12:49.960Z,15.90
2019-05-05T07:15:18.194Z,14.65
2019-05-05T07:17:46.392Z,15.48
2019-05-05T07:20:14.861Z,14.28
2019-05-05T07:22:58.322Z,14.95
2019-05-05T07:25:13.769Z,18.92
2019-05-05T07:27:44.094Z,15.20
2019-05-05T07:30:13.700Z,16.52
2019-05-05T07:32:44.177Z,16.48
2019-05-05T07:35:24.570Z,15.53
2019-05-05T07:37:53.844Z,15.63
2019-05-05T07:40:24.067Z,14.68
2019-05-05T07:42:53.969Z,14.40
2019-05-05T07:45:23.550Z,14.68
2019-05-05T07:47:53.936Z,18.48
2019-05-05T07:50:31.216Z,16.27
2019-05-05T07:52:51.750Z,15.43
2019-05-05T07:55:19.956Z,16.93
2019-05-05T07:57:48.157Z,17.90
2019-05-05T08:00:16.385Z,16.60
2019-05-05T08:02:44.581Z,13.65
2019-05-05T08:05:14.124Z,13.93
2019-05-05T08:07:44.497Z,14.73
2019-05-05T08:10:13.646Z,14.13
2019-05-05T08:12:43.605Z,14.47
2019-05-05T08:15:11.994Z,15.28
2019-05-05T08:17:47.827Z,14.60
2019-05-05T08:20:33.871Z,15.83
2019-05-05T08:23:04.144Z,13.62
2019-05-05T08:25:39.830Z,15.25
2019-05-05T08:28:05.316Z,12.85
2019-05-05T08:30:37.825Z,16.15
2019-05-05T08:33:06.058Z,12.85
2019-05-05T08:35:34.525Z,14.58
2019-05-05T08:38:04.578Z,14.47
2019-05-05T08:40:34.569Z,13.08
2019-05-05T08:43:04.554Z,11.83
2019-05-05T08:45:34.714Z,13.38
2019-05-05T08:48:04.674Z,14.45
2019-05-05T08:50:34.610Z,13.95
2019-05-05T08:53:04.282Z,14.03
2019-05-05T08:55:33.958Z,12.30
2019-05-05T08:58:04.386Z,13.25
2019-05-05T09:00:33.777Z,11.97
2019-05-05T09:03:03.847Z,14.07
2019-05-05T09:05:34.144Z,10.15
2019-05-05T09:08:04.317Z,12.80
2019-05-05T09:10:34.130Z,10.65
2019-05-05T09:13:03.741Z,10.65
2019-05-05T09:15:33.710Z,12.93
2019-05-05T09:18:02.075Z,13.05
2019-05-05T09:20:30.294Z,12.00
2019-05-05T09:22:58.543Z,11.97
2019-05-05T09:25:34.175Z,12.80
2019-05-05T09:28:06.110Z,12.00
2019-05-05T09:30:40.007Z,10.30
2019-05-05T09:33:08.208Z,14.03
2019-05-05T09:35:36.438Z,10.45
2019-05-05T09:38:04.633Z,13.25
2019-05-05T09:40:38.112Z,12.15
2019-05-05T09:43:07.189Z,11.38
2019-05-05T09:45:36.017Z,10.10
2019-05-05T09:48:04.364Z,8.18
2019-05-05T09:50:34.152Z,9.98
2019-05-05T09:53:04.163Z,7.80
2019-05-05T09:55:33.581Z,9.03
2019-05-05T09:58:01.978Z,9.85
2019-05-05T10:00:33.603Z,10.72
2019-05-05T10:03:03.702Z,10.80
2019-05-05T10:05:31.818Z,9.35
2019-05-05T10:08:00.008Z,12.73
2019-05-05T10:10:28.224Z,10.72
2019-05-05T10:12:56.429Z,9.93
2019-05-05T10:15:24.624Z,11.48
2019-05-05T10:17:54.185Z,10.00
2019-05-05T10:20:23.663Z,10.48
2019-05-05T10:22:53.793Z,10.35
2019-05-05T10:25:35.640Z,8.80
2019-05-05T10:28:04.423Z,11.53
2019-05-05T10:30:32.909Z,11.00
2019-05-05T10:33:01.076Z,11.08
2019-05-05T10:35:29.276Z,7.92
2019-05-05T10:37:57.474Z,8.43
2019-05-05T10:40:27.309Z,10.05
2019-05-05T10:42:55.499Z,8.98
2019-05-05T10:45:24.491Z,9.23
2019-05-05T10:47:52.918Z,11.25
2019-05-05T10:50:21.349Z,11.00
2019-05-05T10:52:49.572Z,8.85
2019-05-05T10:55:17.760Z,8.58
2019-05-05T10:57:45.947Z,7.80
2019-05-05T11:00:16.026Z,10.23
2019-05-05T11:02:44.216Z,9.38
2019-05-05T11:05:12.419Z,7.33
2019-05-05T11:07:40.647Z,9.50
2019-05-05T11:10:08.843Z,10.03
2019-05-05T11:12:37.036Z,8.15
2019-05-05T11:15:06.768Z,7.90
2019-05-05T11:17:35.002Z,9.13
2019-05-05T11:20:05.562Z,9.20
2019-05-05T11:22:34.669Z,9.13
2019-05-05T11:25:05.049Z,11.33
2019-05-05T11:27:34.518Z,6.65
2019-05-05T11:30:14.422Z,8.95
2019-05-05T11:33:00.244Z,7.85
2019-05-05T11:35:46.345Z,9.18
2019-05-05T11:38:14.540Z,13.55
2019-05-05T11:40:43.972Z,10.20
2019-05-05T11:43:14.076Z,10.00
2019-05-05T11:45:43.823Z,12.55
2019-05-05T11:48:14.621Z,12.28
2019-05-05T11:50:43.678Z,11.12
2019-05-05T11:53:11.981Z,10.72
2019-05-05T11:55:40.185Z,8.83
2019-05-05T11:58:08.380Z,8.73
2019-05-05T12:00:36.584Z,8.03
2019-05-05T12:03:04.948Z,7.37
2019-05-05T12:05:33.706Z,12.93
2019-05-05T12:08:03.795Z,8.85
2019-05-05T12:10:34.497Z,8.73
2019-05-05T12:13:04.322Z,8.50
2019-05-05T12:15:34.125Z,11.68
2019-05-05T12:18:03.832Z,11.30
2019-05-05T12:20:39.159Z,10.53
2019-05-05T12:23:07.455Z,10.60
2019-05-05T12:25:56.934Z,10.40
2019-05-05T12:28:39.998Z,10.58
2019-05-05T12:31:15.804Z,9.40
2019-05-05T12:33:44.263Z,9.75
2019-05-05T12:36:12.455Z,9.48
2019-05-05T12:38:40.653Z,7.53
2019-05-05T12:41:08.853Z,6.53
2019-05-05T12:43:37.043Z,9.83
2019-05-05T12:46:15.742Z,8.78
2019-05-05T12:48:51.556Z,7.12
2019-05-05T12:51:19.794Z,7.22
2019-05-05T12:53:47.988Z,7.90
2019-05-05T12:56:16.260Z,5.90
2019-05-05T12:58:44.461Z,6.20
2019-05-05T13:01:20.286Z,8.18
2019-05-05T13:03:48.480Z,7.42
2019-05-05T13:06:16.761Z,7.05
2019-05-05T13:08:44.959Z,8.63
2019-05-05T13:11:13.263Z,8.03
2019-05-05T13:13:43.801Z,8.53
2019-05-05T13:16:13.486Z,7.97
2019-05-05T13:18:41.350Z,7.60
2019-05-05T13:21:26.305Z,7.90
2019-05-05T13:23:56.136Z,7.17
2019-05-05T13:26:34.846Z,5.20
2019-05-05T13:29:03.078Z,6.50
2019-05-05T13:31:33.579Z,9.55
2019-05-05T13:34:01.192Z,9.70
2019-05-05T13:36:29.427Z,8.53
2019-05-05T13:38:57.615Z,7.00
2019-05-05T13:41:25.828Z,10.35
2019-05-05T13:43:55.581Z,11.85
2019-05-05T13:46:25.420Z,9.05
2019-05-05T13:48:53.981Z,7.72
2019-05-05T13:51:23.989Z,11.57
2019-05-05T13:53:53.969Z,9.60
2019-05-05T13:56:24.371Z,9.40
2019-05-05T13:58:52.438Z,8.63
2019-05-05T14:01:20.666Z,10.50
2019-05-05T14:03:48.855Z,8.23
2019-05-05T14:06:17.052Z,8.88
2019-05-05T14:08:45.260Z,10.93
2019-05-05T14:11:14.238Z,10.58
2019-05-05T14:13:44.737Z,10.50
2019-05-05T14:16:14.308Z,11.15
2019-05-05T14:18:42.430Z,11.10
2019-05-05T14:21:10.624Z,11.45
2019-05-05T14:23:40.465Z,10.85
2019-05-05T14:26:08.660Z,11.88
2019-05-05T14:28:36.898Z,12.40
2019-05-05T14:31:09.680Z,12.73
2019-05-05T14:33:51.696Z,13.18
2019-05-05T14:36:24.508Z,12.60
2019-05-05T14:38:54.462Z,11.50
2019-05-05T14:41:22.660Z,9.65
2019-05-05T14:43:50.855Z,10.30
2019-05-05T14:46:19.086Z,9.05
2019-05-05T14:48:47.276Z,8.33
2019-05-05T14:51:15.467Z,8.78
2019-05-05T14:53:43.796Z,9.60
2019-05-05T14:56:13.557Z,7.65
2019-05-05T14:58:43.693Z,9.33
2019-05-05T15:01:11.729Z,9.15
2019-05-05T15:03:41.724Z,10.15
2019-05-05T15:06:18.011Z,9.63
2019-05-05T15:09:04.414Z,8.60
2019-05-05T15:11:37.213Z,11.35
2019-05-05T15:14:06.970Z,8.77
2019-05-05T15:16:35.314Z,10.82
2019-05-05T15:19:03.968Z,10.40
2019-05-05T15:21:33.938Z,9.20
2019-05-05T15:24:02.284Z,9.35
2019-05-05T15:26:30.477Z,7.30
2019-05-05T15:29:01.706Z,10.23
2019-05-05T15:31:28.626Z,7.92
2019-05-05T15:33:56.820Z,7.47
2019-05-05T15:36:25.008Z,9.90
2019-05-05T15:38:55.048Z,10.72
2019-05-05T15:41:23.660Z,10.08
2019-05-05T15:43:51.900Z,7.78
2019-05-05T15:46:20.103Z,8.23
2019-05-05T15:48:48.338Z,5.83
2019-05-05T15:51:16.528Z,6.78
2019-05-05T15:53:44.727Z,7.22
2019-05-05T15:56:13.893Z,9.78
2019-05-05T15:58:43.547Z,7.53
2019-05-05T16:01:11.856Z,7.58
2019-05-05T16:03:40.082Z,6.67
2019-05-05T16:06:08.271Z,9.98
2019-05-05T16:08:36.470Z,8.35
2019-05-05T16:11:04.664Z,10.15
2019-05-05T16:13:35.112Z,7.55
2019-05-05T16:16:05.357Z,7.47
2019-05-05T16:18:38.064Z,9.20
2019-05-05T16:21:07.938Z,9.38
2019-05-05T16:23:46.648Z,7.60
2019-05-05T16:26:14.856Z,10.78
2019-05-05T16:28:44.572Z,7.47
2019-05-05T16:31:14.503Z,6.83
2019-05-05T16:33:44.114Z,9.28
2019-05-05T16:36:13.790Z,8.15
2019-05-05T16:38:43.603Z,10.48
2019-05-05T16:41:13.608Z,6.53
2019-05-05T16:43:41.871Z,7.35
2019-05-05T16:46:10.106Z,6.45
2019-05-05T16:48:38.296Z,7.30
2019-05-05T16:51:08.128Z,6.87
2019-05-05T16:53:37.127Z,7.67
2019-05-05T16:56:11.111Z,7.70
2019-05-05T16:58:39.303Z,8.68
2019-05-05T17:01:09.140Z,7.42
2019-05-05T17:03:37.336Z,6.72
2019-05-05T17:06:05.532Z,6.25
2019-05-05T17:08:33.904Z,6.53
2019-05-05T17:11:02.099Z,4.53
2019-05-05T17:13:49.860Z,4.60
2019-05-05T17:16:35.693Z,4.45
2019-05-05T17:19:13.811Z,4.55
2019-05-05T17:21:53.586Z,5.95
2019-05-05T17:24:23.756Z,5.55
2019-05-05T17:26:51.815Z,5.03
2019-05-05T17:29:19.998Z,6.03
2019-05-05T17:31:48.191Z,7.87
2019-05-05T17:34:16.385Z,6.67
2019-05-05T17:36:45.259Z,5.25
2019-05-05T17:39:13.666Z,5.80
2019-05-05T17:41:49.482Z,5.33
2019-05-05T17:44:37.389Z,6.37
2019-05-05T17:47:16.076Z,4.33
2019-05-05T17:49:57.392Z,5.75
2019-05-05T17:52:38.743Z,5.70
2019-05-05T17:55:27.234Z,6.15
2019-05-05T17:58:01.554Z,4.42
2019-05-05T18:00:24.622Z,7.05
2019-05-05T18:02:53.476Z,6.50
2019-05-05T18:05:24.800Z,4.75
2019-05-05T18:07:53.560Z,4.95
2019-05-05T18:10:23.992Z,4.58
2019-05-05T18:12:54.092Z,5.28
2019-05-05T18:15:40.220Z,5.47
2019-05-05T18:18:08.413Z,5.30
2019-05-05T18:20:36.609Z,5.40
2019-05-05T18:23:04.804Z,6.30
2019-05-05T18:25:34.698Z,4.33
2019-05-05T18:28:15.694Z,4.45
2019-05-05T18:30:33.455Z,7.15
2019-05-05T18:33:01.711Z,4.75
2019-05-05T18:35:29.937Z,4.85
2019-05-05T18:37:58.166Z,5.83
2019-05-05T18:40:26.386Z,6.12
2019-05-05T18:42:55.696Z,11.93
2019-05-05T18:45:23.876Z,6.60
2019-05-05T18:47:53.793Z,5.58
2019-05-05T18:50:22.072Z,5.03
2019-05-05T18:52:50.263Z,5.40
2019-05-05T18:55:18.464Z,5.95
2019-05-05T18:57:46.694Z,6.05
2019-05-05T19:00:16.529Z,6.05
2019-05-05T19:02:53.576Z,6.17
2019-05-05T19:05:23.780Z,5.55
2019-05-05T19:07:59.455Z,5.62
2019-05-05T19:10:27.648Z,6.65
2019-05-05T19:12:55.867Z,5.05
2019-05-05T19:15:24.446Z,5.72
2019-05-05T19:17:52.862Z,5.92
2019-05-05T19:20:24.195Z,6.05
2019-05-05T19:22:54.406Z,5.40
2019-05-05T19:25:24.176Z,7.55
2019-05-05T19:27:53.653Z,5.00
2019-05-05T19:30:22.490Z,6.20
2019-05-05T19:32:50.710Z,6.00
2019-05-05T19:35:18.904Z,7.22
2019-05-05T19:37:47.130Z,6.83
2019-05-05T19:40:15.325Z,8.85
2019-05-05T19:42:46.004Z,8.33
2019-05-05T19:45:13.469Z,7.00
2019-05-05T19:47:43.715Z,8.73
2019-05-05T19:50:17.313Z,8.30
2019-05-05T19:52:46.685Z,6.90
2019-05-05T19:55:14.927Z,7.85
2019-05-05T19:57:44.588Z,7.25
2019-05-05T20:00:14.590Z,7.67
2019-05-05T20:02:43.828Z,8.15
2019-05-05T20:05:13.762Z,9.45
2019-05-05T20:07:43.838Z,6.92
2019-05-05T20:10:12.132Z,9.10
2019-05-05T20:12:40.329Z,7.28
2019-05-05T20:15:10.198Z,8.30
2019-05-05T20:17:38.764Z,6.70
2019-05-05T20:20:07.303Z,9.05
2019-05-05T20:22:35.559Z,7.35
2019-05-05T20:25:05.800Z,9.43
2019-05-05T20:27:34.417Z,9.28
2019-05-05T20:30:06.172Z,9.13
2019-05-05T20:32:35.304Z,11.85
2019-05-05T20:35:21.339Z,11.70
2019-05-05T20:37:51.163Z,12.58
2019-05-05T20:40:21.005Z,11.28
2019-05-05T20:42:49.231Z,10.53
2019-05-05T20:45:19.074Z,12.07
2019-05-05T20:47:47.302Z,13.10
2019-05-05T20:50:15.505Z,10.20
2019-05-05T20:52:44.235Z,10.72
2019-05-05T20:55:14.106Z,10.35
2019-05-05T20:57:44.341Z,11.70
2019-05-05T21:00:14.514Z,11.68
2019-05-05T21:02:43.597Z,10.03
2019-05-05T21:05:11.913Z,11.50
2019-05-05T21:07:40.115Z,11.68
2019-05-05T21:10:08.324Z,11.70
2019-05-05T21:12:41.937Z,11.40
2019-05-05T21:15:07.108Z,12.30
2019-05-05T21:17:35.808Z,12.58
2019-05-05T21:20:07.342Z,9.30
2019-05-05T21:22:37.179Z,12.98
2019-05-05T21:25:07.957Z,10.13
2019-05-05T21:27:36.231Z,11.43
2019-05-05T21:30:07.174Z,15.13
2019-05-05T21:32:35.368Z,12.82
2019-05-05T21:35:03.940Z,13.62
2019-05-05T21:37:33.989Z,15.43
2019-05-05T21:40:04.467Z,14.53
2019-05-05T21:42:31.985Z,14.15
2019-05-05T21:45:00.185Z,15.43
2019-05-05T21:47:28.433Z,18.92
2019-05-05T21:49:56.616Z,14.03
2019-05-05T21:52:29.278Z,14.63
2019-05-05T21:54:59.149Z,14.07
2019-05-05T21:57:40.808Z,12.95
2019-05-05T22:00:10.712Z,13.58
2019-05-05T22:02:38.916Z,12.13
2019-05-05T22:05:07.125Z,13.98
2019-05-05T22:07:35.325Z,14.60
2019-05-05T22:10:04.584Z,12.43
2019-05-05T22:12:33.407Z,12.05
2019-05-05T22:15:04.338Z,13.88
2019-05-05T22:17:33.632Z,12.20
2019-05-05T22:20:09.956Z,13.10
2019-05-05T22:22:39.831Z,14.55
2019-05-05T22:25:08.024Z,11.15
2019-05-05T22:27:36.228Z,11.95
2019-05-05T22:30:10.039Z,11.30
2019-05-05T22:32:35.746Z,12.82
2019-05-05T22:35:06.069Z,10.08
2019-05-05T22:37:34.478Z,12.33
2019-05-05T22:40:02.753Z,11.55
2019-05-05T22:42:30.955Z,11.38
2019-05-05T22:44:59.248Z,10.25
2019-05-05T22:47:27.464Z,10.55
2019-05-05T22:49:55.690Z,8.75
2019-05-05T22:52:25.491Z,12.73
2019-05-05T22:54:53.765Z,12.10
2019-05-05T22:57:21.972Z,11.45
2019-05-05T22:59:50.173Z,11.90
2019-05-05T23:02:20.013Z,15.18
2019-05-05T23:04:58.979Z,10.40
2019-05-05T23:07:28.862Z,8.90
2019-05-05T23:09:57.057Z,10.60
2019-05-05T23:12:25.256Z,11.28
2019-05-05T23:14:54.510Z,10.28
2019-05-05T23:17:27.451Z,10.48
2019-05-05T23:20:06.329Z,9.45
2019-05-05T23:22:44.019Z,10.68
2019-05-05T23:25:19.076Z,9.10
2019-05-05T23:27:48.046Z,9.90
2019-05-05T23:30:17.343Z,10.13
2019-05-05T23:32:46.486Z,10.43
2019-05-05T23:35:14.719Z,11.12
2019-05-05T23:37:44.840Z,12.53
2019-05-05T23:40:14.823Z,10.15
2019-05-05T23:42:43.017Z,11.45
2019-05-05T23:45:11.216Z,10.63
2019-05-05T23:47:39.416Z,11.30
2019-05-05T23:50:07.615Z,11.97
2019-05-05T23:52:35.820Z,11.05
2019-05-05T23:55:05.551Z,11.30
2019-05-05T23:57:33.748Z,13.22
